sensor_id;sensor_type;location;lat;lon;timestamp;P1;durP1;ratioP1;P2;durP2;ratioP2
60700;SDS011;46541;49.894;10.886;2024-02-15T00:00:53;21.42;;;12.55;;
60700;SDS011;46541;49.894;10.886;2024-02-15T00:03:20;16.88;;;11.23;;
60700;SDS011;46541;49.894;10.886;2024-02-15T00:05:47;13.70;;;10.57;;
60700;SDS011;46541;49.894;10.886;2024-02-15T00:08:14;15.13;;;10.48;;
60700;SDS011;46541;49.894;10.886;2024-02-15T00:10:41;15.43;;;10.13;;
60700;SDS011;46541;49.894;10.886;2024-02-15T00:13:08;13.68;;;9.57;;
60700;SDS011;46541;49.894;10.886;2024-02-15T00:15:36;16.63;;;10.65;;
60700;SDS011;46541;49.894;10.886;2024-02-15T00:18:03;16.17;;;10.77;;
60700;SDS011;46541;49.894;10.886;2024-02-15T00:20:30;13.40;;;10.48;;
60700;SDS011;46541;49.894;10.886;2024-02-15T00:23:00;18.80;;;10.85;;
60700;SDS011;46541;49.894;10.886;2024-02-15T00:25:27;17.27;;;10.07;;
60700;SDS011;46541;49.894;10.886;2024-02-15T00:27:53;15.65;;;9.95;;
60700;SDS011;46541;49.894;10.886;2024-02-15T00:30:20;14.55;;;10.40;;
60700;SDS011;46541;49.894;10.886;2024-02-15T00:32:47;15.38;;;9.95;;
60700;SDS011;46541;49.894;10.886;2024-02-15T00:35:15;15.27;;;9.77;;
60700;SDS011;46541;49.894;10.886;2024-02-15T00:37:43;13.35;;;9.68;;
60700;SDS011;46541;49.894;10.886;2024-02-15T00:40:10;20.10;;;10.93;;
60700;SDS011;46541;49.894;10.886;2024-02-15T00:42:37;19.73;;;11.05;;
60700;SDS011;46541;49.894;10.886;2024-02-15T00:45:05;22.20;;;11.85;;
60700;SDS011;46541;49.894;10.886;2024-02-15T00:47:36;24.10;;;12.32;;
60700;SDS011;46541;49.894;10.886;2024-02-15T00:50:04;20.63;;;10.73;;
60700;SDS011;46541;49.894;10.886;2024-02-15T00:52:32;14.80;;;10.57;;
60700;SDS011;46541;49.894;10.886;2024-02-15T00:54:58;17.15;;;11.30;;
60700;SDS011;46541;49.894;10.886;2024-02-15T00:57:25;12.35;;;9.00;;
60700;SDS011;46541;49.894;10.886;2024-02-15T00:59:52;12.93;;;9.82;;
60700;SDS011;46541;49.894;10.886;2024-02-15T01:02:19;14.82;;;10.25;;
60700;SDS011;46541;49.894;10.886;2024-02-15T01:04:46;16.63;;;11.50;;
60700;SDS011;46541;49.894;10.886;2024-02-15T01:07:12;18.38;;;12.32;;
60700;SDS011;46541;49.894;10.886;2024-02-15T01:09:39;17.65;;;12.43;;
60700;SDS011;46541;49.894;10.886;2024-02-15T01:12:06;21.55;;;12.90;;
60700;SDS011;46541;49.894;10.886;2024-02-15T01:14:33;19.33;;;12.88;;
60700;SDS011;46541;49.894;10.886;2024-02-15T01:17:00;19.85;;;11.98;;
60700;SDS011;46541;49.894;10.886;2024-02-15T01:19:27;19.10;;;13.05;;
60700;SDS011;46541;49.894;10.886;2024-02-15T01:21:54;18.33;;;13.20;;
60700;SDS011;46541;49.894;10.886;2024-02-15T01:24:21;17.08;;;12.57;;
60700;SDS011;46541;49.894;10.886;2024-02-15T01:26:48;21.33;;;14.43;;
60700;SDS011;46541;49.894;10.886;2024-02-15T01:29:15;17.67;;;12.07;;
60700;SDS011;46541;49.894;10.886;2024-02-15T01:31:42;19.05;;;13.77;;
60700;SDS011;46541;49.894;10.886;2024-02-15T01:34:09;17.13;;;13.05;;
60700;SDS011;46541;49.894;10.886;2024-02-15T01:36:36;22.30;;;14.75;;
60700;SDS011;46541;49.894;10.886;2024-02-15T01:39:03;18.90;;;14.48;;
60700;SDS011;46541;49.894;10.886;2024-02-15T01:41:30;20.02;;;14.77;;
60700;SDS011;46541;49.894;10.886;2024-02-15T01:43:58;20.40;;;14.10;;
60700;SDS011;46541;49.894;10.886;2024-02-15T01:46:24;19.60;;;14.45;;
60700;SDS011;46541;49.894;10.886;2024-02-15T01:48:51;16.92;;;13.75;;
60700;SDS011;46541;49.894;10.886;2024-02-15T01:51:18;18.92;;;13.60;;
60700;SDS011;46541;49.894;10.886;2024-02-15T01:53:45;20.88;;;14.73;;
60700;SDS011;46541;49.894;10.886;2024-02-15T01:56:13;19.23;;;13.80;;
60700;SDS011;46541;49.894;10.886;2024-02-15T01:58:41;25.80;;;15.27;;
60700;SDS011;46541;49.894;10.886;2024-02-15T02:01:09;21.60;;;15.93;;
60700;SDS011;46541;49.894;10.886;2024-02-15T02:03:37;23.55;;;16.08;;
60700;SDS011;46541;49.894;10.886;2024-02-15T02:06:05;21.80;;;15.85;;
60700;SDS011;46541;49.894;10.886;2024-02-15T02:08:33;24.98;;;15.95;;
60700;SDS011;46541;49.894;10.886;2024-02-15T02:11:00;19.98;;;14.10;;
60700;SDS011;46541;49.894;10.886;2024-02-15T02:13:28;18.95;;;14.80;;
60700;SDS011;46541;49.894;10.886;2024-02-15T02:15:56;23.25;;;15.05;;
60700;SDS011;46541;49.894;10.886;2024-02-15T02:18:23;21.77;;;16.00;;
60700;SDS011;46541;49.894;10.886;2024-02-15T02:20:51;24.30;;;15.38;;
60700;SDS011;46541;49.894;10.886;2024-02-15T02:23:20;18.15;;;14.27;;
60700;SDS011;46541;49.894;10.886;2024-02-15T02:25:49;22.17;;;15.40;;
60700;SDS011;46541;49.894;10.886;2024-02-15T02:28:16;20.13;;;14.70;;
60700;SDS011;46541;49.894;10.886;2024-02-15T02:30:43;21.63;;;15.10;;
60700;SDS011;46541;49.894;10.886;2024-02-15T02:33:12;21.17;;;16.40;;
60700;SDS011;46541;49.894;10.886;2024-02-15T02:35:46;20.48;;;14.40;;
60700;SDS011;46541;49.894;10.886;2024-02-15T02:38:14;21.83;;;15.65;;
60700;SDS011;46541;49.894;10.886;2024-02-15T02:40:41;20.05;;;14.57;;
60700;SDS011;46541;49.894;10.886;2024-02-15T02:43:08;24.05;;;16.05;;
60700;SDS011;46541;49.894;10.886;2024-02-15T02:45:36;22.10;;;15.32;;
60700;SDS011;46541;49.894;10.886;2024-02-15T02:48:03;22.83;;;15.85;;
60700;SDS011;46541;49.894;10.886;2024-02-15T02:50:30;20.85;;;14.93;;
60700;SDS011;46541;49.894;10.886;2024-02-15T02:52:58;21.98;;;15.70;;
60700;SDS011;46541;49.894;10.886;2024-02-15T02:55:25;23.17;;;14.70;;
60700;SDS011;46541;49.894;10.886;2024-02-15T02:57:53;22.63;;;15.10;;
60700;SDS011;46541;49.894;10.886;2024-02-15T03:00:21;21.48;;;14.77;;
60700;SDS011;46541;49.894;10.886;2024-02-15T03:02:48;18.80;;;14.75;;
60700;SDS011;46541;49.894;10.886;2024-02-15T03:05:15;27.08;;;15.57;;
60700;SDS011;46541;49.894;10.886;2024-02-15T03:07:42;27.27;;;15.00;;
60700;SDS011;46541;49.894;10.886;2024-02-15T03:10:10;22.73;;;15.65;;
60700;SDS011;46541;49.894;10.886;2024-02-15T03:12:40;24.08;;;15.13;;
60700;SDS011;46541;49.894;10.886;2024-02-15T03:15:13;25.63;;;14.93;;
60700;SDS011;46541;49.894;10.886;2024-02-15T03:17:40;23.77;;;16.10;;
60700;SDS011;46541;49.894;10.886;2024-02-15T03:20:09;16.52;;;13.10;;
60700;SDS011;46541;49.894;10.886;2024-02-15T03:22:56;21.45;;;14.52;;
60700;SDS011;46541;49.894;10.886;2024-02-15T03:25:24;22.45;;;14.70;;
60700;SDS011;46541;49.894;10.886;2024-02-15T03:27:52;26.20;;;15.10;;
60700;SDS011;46541;49.894;10.886;2024-02-15T03:30:22;19.15;;;14.32;;
60700;SDS011;46541;49.894;10.886;2024-02-15T03:32:53;22.42;;;14.68;;
60700;SDS011;46541;49.894;10.886;2024-02-15T03:35:21;17.58;;;13.52;;
60700;SDS011;46541;49.894;10.886;2024-02-15T03:37:51;19.30;;;14.25;;
60700;SDS011;46541;49.894;10.886;2024-02-15T03:40:19;23.30;;;15.02;;
60700;SDS011;46541;49.894;10.886;2024-02-15T03:42:47;18.08;;;14.32;;
60700;SDS011;46541;49.894;10.886;2024-02-15T03:45:14;25.02;;;14.85;;
60700;SDS011;46541;49.894;10.886;2024-02-15T03:47:41;18.27;;;13.88;;
60700;SDS011;46541;49.894;10.886;2024-02-15T03:50:08;22.67;;;13.63;;
60700;SDS011;46541;49.894;10.886;2024-02-15T03:52:40;20.85;;;14.43;;
60700;SDS011;46541;49.894;10.886;2024-02-15T03:55:07;20.02;;;14.50;;
60700;SDS011;46541;49.894;10.886;2024-02-15T03:57:35;24.38;;;14.77;;
60700;SDS011;46541;49.894;10.886;2024-02-15T04:00:13;18.33;;;13.40;;
60700;SDS011;46541;49.894;10.886;2024-02-15T04:02:48;20.17;;;13.65;;
60700;SDS011;46541;49.894;10.886;2024-02-15T04:05:15;17.77;;;13.10;;
60700;SDS011;46541;49.894;10.886;2024-02-15T04:07:44;24.02;;;13.52;;
60700;SDS011;46541;49.894;10.886;2024-02-15T04:10:11;21.05;;;13.35;;
60700;SDS011;46541;49.894;10.886;2024-02-15T04:12:38;18.63;;;14.20;;
60700;SDS011;46541;49.894;10.886;2024-02-15T04:15:08;17.05;;;12.40;;
60700;SDS011;46541;49.894;10.886;2024-02-15T04:17:41;17.35;;;13.10;;
60700;SDS011;46541;49.894;10.886;2024-02-15T04:20:09;18.50;;;13.27;;
60700;SDS011;46541;49.894;10.886;2024-02-15T04:22:38;16.73;;;12.75;;
60700;SDS011;46541;49.894;10.886;2024-02-15T04:25:05;17.88;;;13.10;;
60700;SDS011;46541;49.894;10.886;2024-02-15T04:27:33;21.27;;;13.88;;
60700;SDS011;46541;49.894;10.886;2024-02-15T04:30:00;19.65;;;12.80;;
60700;SDS011;46541;49.894;10.886;2024-02-15T04:32:29;17.00;;;13.27;;
60700;SDS011;46541;49.894;10.886;2024-02-15T04:35:00;18.38;;;13.43;;
60700;SDS011;46541;49.894;10.886;2024-02-15T04:37:28;18.20;;;12.55;;
60700;SDS011;46541;49.894;10.886;2024-02-15T04:39:58;18.25;;;12.73;;
60700;SDS011;46541;49.894;10.886;2024-02-15T04:42:34;19.25;;;12.50;;
60700;SDS011;46541;49.894;10.886;2024-02-15T04:45:02;19.60;;;12.20;;
60700;SDS011;46541;49.894;10.886;2024-02-15T04:47:29;16.52;;;11.50;;
60700;SDS011;46541;49.894;10.886;2024-02-15T04:49:56;19.20;;;12.95;;
60700;SDS011;46541;49.894;10.886;2024-02-15T04:52:23;16.50;;;12.35;;
60700;SDS011;46541;49.894;10.886;2024-02-15T04:54:50;20.75;;;12.45;;
60700;SDS011;46541;49.894;10.886;2024-02-15T04:57:17;22.00;;;12.30;;
60700;SDS011;46541;49.894;10.886;2024-02-15T04:59:44;17.42;;;12.25;;
60700;SDS011;46541;49.894;10.886;2024-02-15T05:02:13;17.52;;;12.32;;
60700;SDS011;46541;49.894;10.886;2024-02-15T05:04:40;17.05;;;12.15;;
60700;SDS011;46541;49.894;10.886;2024-02-15T05:07:09;18.05;;;12.38;;
60700;SDS011;46541;49.894;10.886;2024-02-15T05:09:37;17.65;;;12.05;;
60700;SDS011;46541;49.894;10.886;2024-02-15T05:12:03;17.23;;;12.35;;
60700;SDS011;46541;49.894;10.886;2024-02-15T05:14:31;17.17;;;12.07;;
60700;SDS011;46541;49.894;10.886;2024-02-15T05:16:59;20.83;;;12.75;;
60700;SDS011;46541;49.894;10.886;2024-02-15T05:19:26;16.77;;;12.40;;
60700;SDS011;46541;49.894;10.886;2024-02-15T05:21:54;16.52;;;12.32;;
60700;SDS011;46541;49.894;10.886;2024-02-15T05:24:21;20.67;;;12.25;;
60700;SDS011;46541;49.894;10.886;2024-02-15T05:26:48;17.25;;;12.52;;
60700;SDS011;46541;49.894;10.886;2024-02-15T05:29:16;19.88;;;12.60;;
60700;SDS011;46541;49.894;10.886;2024-02-15T05:31:43;17.63;;;12.57;;
60700;SDS011;46541;49.894;10.886;2024-02-15T05:34:11;17.30;;;12.18;;
60700;SDS011;46541;49.894;10.886;2024-02-15T05:36:38;21.83;;;13.70;;
60700;SDS011;46541;49.894;10.886;2024-02-15T05:39:05;16.25;;;11.82;;
60700;SDS011;46541;49.894;10.886;2024-02-15T05:41:33;16.83;;;12.52;;
60700;SDS011;46541;49.894;10.886;2024-02-15T05:44:01;15.82;;;11.52;;
60700;SDS011;46541;49.894;10.886;2024-02-15T05:46:30;16.25;;;12.10;;
60700;SDS011;46541;49.894;10.886;2024-02-15T05:48:57;18.98;;;12.27;;
60700;SDS011;46541;49.894;10.886;2024-02-15T05:51:25;18.30;;;12.18;;
60700;SDS011;46541;49.894;10.886;2024-02-15T05:53:53;14.60;;;10.80;;
60700;SDS011;46541;49.894;10.886;2024-02-15T05:56:25;21.88;;;12.15;;
60700;SDS011;46541;49.894;10.886;2024-02-15T05:58:52;18.45;;;12.55;;
60700;SDS011;46541;49.894;10.886;2024-02-15T06:01:19;17.98;;;11.93;;
60700;SDS011;46541;49.894;10.886;2024-02-15T06:03:46;17.38;;;11.93;;
60700;SDS011;46541;49.894;10.886;2024-02-15T06:06:14;18.55;;;11.27;;
60700;SDS011;46541;49.894;10.886;2024-02-15T06:08:45;14.85;;;11.10;;
60700;SDS011;46541;49.894;10.886;2024-02-15T06:11:14;15.95;;;10.90;;
60700;SDS011;46541;49.894;10.886;2024-02-15T06:13:47;22.75;;;12.82;;
60700;SDS011;46541;49.894;10.886;2024-02-15T06:16:13;17.55;;;11.02;;
60700;SDS011;46541;49.894;10.886;2024-02-15T06:18:40;15.68;;;11.20;;
60700;SDS011;46541;49.894;10.886;2024-02-15T06:21:07;18.67;;;12.27;;
60700;SDS011;46541;49.894;10.886;2024-02-15T06:23:35;15.88;;;11.95;;
60700;SDS011;46541;49.894;10.886;2024-02-15T06:26:03;15.05;;;11.00;;
60700;SDS011;46541;49.894;10.886;2024-02-15T06:28:30;25.25;;;15.90;;
60700;SDS011;46541;49.894;10.886;2024-02-15T06:31:16;19.75;;;11.23;;
60700;SDS011;46541;49.894;10.886;2024-02-15T06:34:01;14.95;;;11.15;;
60700;SDS011;46541;49.894;10.886;2024-02-15T06:36:52;16.57;;;11.27;;
60700;SDS011;46541;49.894;10.886;2024-02-15T06:39:38;17.58;;;11.23;;
60700;SDS011;46541;49.894;10.886;2024-02-15T06:42:08;15.93;;;10.90;;
60700;SDS011;46541;49.894;10.886;2024-02-15T06:44:38;16.15;;;11.07;;
60700;SDS011;46541;49.894;10.886;2024-02-15T06:47:06;14.52;;;10.45;;
60700;SDS011;46541;49.894;10.886;2024-02-15T06:49:34;16.35;;;11.60;;
60700;SDS011;46541;49.894;10.886;2024-02-15T06:52:01;20.35;;;13.77;;
60700;SDS011;46541;49.894;10.886;2024-02-15T06:54:28;20.23;;;12.65;;
60700;SDS011;46541;49.894;10.886;2024-02-15T06:56:55;19.75;;;12.50;;
60700;SDS011;46541;49.894;10.886;2024-02-15T06:59:22;16.95;;;11.05;;
60700;SDS011;46541;49.894;10.886;2024-02-15T07:01:49;15.57;;;11.38;;
60700;SDS011;46541;49.894;10.886;2024-02-15T07:04:18;20.95;;;11.30;;
60700;SDS011;46541;49.894;10.886;2024-02-15T07:06:47;17.20;;;11.07;;
60700;SDS011;46541;49.894;10.886;2024-02-15T07:09:15;14.88;;;9.77;;
60700;SDS011;46541;49.894;10.886;2024-02-15T07:11:44;13.63;;;10.48;;
60700;SDS011;46541;49.894;10.886;2024-02-15T07:14:16;14.13;;;9.35;;
60700;SDS011;46541;49.894;10.886;2024-02-15T07:16:44;14.25;;;9.85;;
60700;SDS011;46541;49.894;10.886;2024-02-15T07:19:15;13.50;;;8.75;;
60700;SDS011;46541;49.894;10.886;2024-02-15T07:21:43;13.73;;;9.20;;
60700;SDS011;46541;49.894;10.886;2024-02-15T07:24:10;10.13;;;8.02;;
60700;SDS011;46541;49.894;10.886;2024-02-15T07:26:37;13.57;;;8.70;;
60700;SDS011;46541;49.894;10.886;2024-02-15T07:29:04;13.35;;;8.43;;
60700;SDS011;46541;49.894;10.886;2024-02-15T07:31:32;13.82;;;9.15;;
60700;SDS011;46541;49.894;10.886;2024-02-15T07:34:02;14.45;;;9.18;;
60700;SDS011;46541;49.894;10.886;2024-02-15T07:36:32;12.52;;;8.13;;
60700;SDS011;46541;49.894;10.886;2024-02-15T07:38:58;14.95;;;9.43;;
60700;SDS011;46541;49.894;10.886;2024-02-15T07:41:27;17.15;;;8.40;;
60700;SDS011;46541;49.894;10.886;2024-02-15T07:43:54;13.80;;;8.75;;
60700;SDS011;46541;49.894;10.886;2024-02-15T07:46:22;14.45;;;8.30;;
60700;SDS011;46541;49.894;10.886;2024-02-15T07:48:50;16.77;;;8.23;;
60700;SDS011;46541;49.894;10.886;2024-02-15T07:51:21;10.65;;;8.15;;
60700;SDS011;46541;49.894;10.886;2024-02-15T07:53:49;12.75;;;7.90;;
60700;SDS011;46541;49.894;10.886;2024-02-15T07:56:16;11.98;;;8.20;;
60700;SDS011;46541;49.894;10.886;2024-02-15T07:58:44;12.00;;;6.88;;
60700;SDS011;46541;49.894;10.886;2024-02-15T08:01:19;12.73;;;6.97;;
60700;SDS011;46541;49.894;10.886;2024-02-15T08:03:51;11.48;;;7.13;;
60700;SDS011;46541;49.894;10.886;2024-02-15T08:06:20;14.00;;;8.23;;
60700;SDS011;46541;49.894;10.886;2024-02-15T08:08:49;10.35;;;6.88;;
60700;SDS011;46541;49.894;10.886;2024-02-15T08:11:18;10.07;;;7.00;;
60700;SDS011;46541;49.894;10.886;2024-02-15T08:13:46;9.43;;;6.35;;
60700;SDS011;46541;49.894;10.886;2024-02-15T08:16:20;9.02;;;6.90;;
60700;SDS011;46541;49.894;10.886;2024-02-15T08:18:50;13.50;;;7.03;;
60700;SDS011;46541;49.894;10.886;2024-02-15T08:21:27;10.88;;;6.45;;
60700;SDS011;46541;49.894;10.886;2024-02-15T08:23:56;10.15;;;6.63;;
60700;SDS011;46541;49.894;10.886;2024-02-15T08:26:23;14.98;;;7.07;;
60700;SDS011;46541;49.894;10.886;2024-02-15T08:28:49;12.27;;;6.93;;
60700;SDS011;46541;49.894;10.886;2024-02-15T08:31:16;11.98;;;6.80;;
60700;SDS011;46541;49.894;10.886;2024-02-15T08:33:45;10.45;;;6.05;;
60700;SDS011;46541;49.894;10.886;2024-02-15T08:36:12;10.30;;;6.65;;
60700;SDS011;46541;49.894;10.886;2024-02-15T08:38:42;11.02;;;5.57;;
60700;SDS011;46541;49.894;10.886;2024-02-15T08:41:11;10.57;;;5.47;;
60700;SDS011;46541;49.894;10.886;2024-02-15T08:43:39;8.48;;;5.55;;
60700;SDS011;46541;49.894;10.886;2024-02-15T08:46:07;14.23;;;6.55;;
60700;SDS011;46541;49.894;10.886;2024-02-15T08:48:34;12.77;;;6.88;;
60700;SDS011;46541;49.894;10.886;2024-02-15T08:51:02;14.45;;;6.43;;
60700;SDS011;46541;49.894;10.886;2024-02-15T08:53:29;9.88;;;5.60;;
60700;SDS011;46541;49.894;10.886;2024-02-15T08:55:58;7.55;;;5.85;;
60700;SDS011;46541;49.894;10.886;2024-02-15T08:58:25;10.38;;;6.25;;
60700;SDS011;46541;49.894;10.886;2024-02-15T09:00:53;14.35;;;6.50;;
60700;SDS011;46541;49.894;10.886;2024-02-15T09:03:20;13.27;;;6.93;;
60700;SDS011;46541;49.894;10.886;2024-02-15T09:05:47;14.68;;;7.03;;
60700;SDS011;46541;49.894;10.886;2024-02-15T09:08:15;9.05;;;5.78;;
60700;SDS011;46541;49.894;10.886;2024-02-15T09:10:42;8.13;;;5.00;;
60700;SDS011;46541;49.894;10.886;2024-02-15T09:13:08;8.10;;;4.90;;
60700;SDS011;46541;49.894;10.886;2024-02-15T09:15:35;9.05;;;5.30;;
60700;SDS011;46541;49.894;10.886;2024-02-15T09:18:02;5.35;;;4.05;;
60700;SDS011;46541;49.894;10.886;2024-02-15T09:20:29;12.55;;;5.00;;
60700;SDS011;46541;49.894;10.886;2024-02-15T09:22:57;8.00;;;4.43;;
60700;SDS011;46541;49.894;10.886;2024-02-15T09:25:25;6.15;;;3.88;;
60700;SDS011;46541;49.894;10.886;2024-02-15T09:27:52;7.07;;;3.90;;
60700;SDS011;46541;49.894;10.886;2024-02-15T09:30:22;6.20;;;4.18;;
60700;SDS011;46541;49.894;10.886;2024-02-15T09:32:51;9.07;;;3.80;;
60700;SDS011;46541;49.894;10.886;2024-02-15T09:35:18;10.45;;;4.88;;
60700;SDS011;46541;49.894;10.886;2024-02-15T09:37:46;9.27;;;4.72;;
60700;SDS011;46541;49.894;10.886;2024-02-15T09:40:17;8.40;;;4.82;;
60700;SDS011;46541;49.894;10.886;2024-02-15T09:42:46;9.82;;;4.47;;
60700;SDS011;46541;49.894;10.886;2024-02-15T09:45:13;10.20;;;4.50;;
60700;SDS011;46541;49.894;10.886;2024-02-15T09:47:45;5.40;;;3.58;;
60700;SDS011;46541;49.894;10.886;2024-02-15T09:50:15;7.50;;;3.65;;
60700;SDS011;46541;49.894;10.886;2024-02-15T09:52:50;6.85;;;3.35;;
60700;SDS011;46541;49.894;10.886;2024-02-15T09:55:18;12.05;;;3.65;;
60700;SDS011;46541;49.894;10.886;2024-02-15T09:57:49;11.73;;;3.40;;
60700;SDS011;46541;49.894;10.886;2024-02-15T10:00:16;7.18;;;4.35;;
60700;SDS011;46541;49.894;10.886;2024-02-15T10:02:44;8.90;;;4.15;;
60700;SDS011;46541;49.894;10.886;2024-02-15T10:05:17;8.18;;;3.95;;
60700;SDS011;46541;49.894;10.886;2024-02-15T10:07:44;6.28;;;3.42;;
60700;SDS011;46541;49.894;10.886;2024-02-15T10:12:47;10.75;;;4.38;;
60700;SDS011;46541;49.894;10.886;2024-02-15T10:15:26;11.13;;;4.35;;
60700;SDS011;46541;49.894;10.886;2024-02-15T10:17:58;6.65;;;4.30;;
60700;SDS011;46541;49.894;10.886;2024-02-15T10:20:25;6.72;;;4.07;;
60700;SDS011;46541;49.894;10.886;2024-02-15T10:22:53;7.97;;;4.57;;
60700;SDS011;46541;49.894;10.886;2024-02-15T10:25:36;5.40;;;3.50;;
60700;SDS011;46541;49.894;10.886;2024-02-15T10:28:04;9.57;;;4.40;;
60700;SDS011;46541;49.894;10.886;2024-02-15T10:30:34;7.07;;;3.40;;
60700;SDS011;46541;49.894;10.886;2024-02-15T10:33:02;9.90;;;4.18;;
60700;SDS011;46541;49.894;10.886;2024-02-15T10:35:30;12.25;;;7.32;;
60700;SDS011;46541;49.894;10.886;2024-02-15T10:40:34;12.48;;;6.95;;
60700;SDS011;46541;49.894;10.886;2024-02-15T10:43:04;12.85;;;6.55;;
60700;SDS011;46541;49.894;10.886;2024-02-15T10:45:32;8.05;;;4.93;;
60700;SDS011;46541;49.894;10.886;2024-02-15T10:47:59;10.43;;;4.60;;
60700;SDS011;46541;49.894;10.886;2024-02-15T10:50:26;5.90;;;3.55;;
60700;SDS011;46541;49.894;10.886;2024-02-15T10:52:57;5.80;;;2.92;;
60700;SDS011;46541;49.894;10.886;2024-02-15T10:58:09;6.93;;;3.88;;
60700;SDS011;46541;49.894;10.886;2024-02-15T11:00:39;5.80;;;3.20;;
60700;SDS011;46541;49.894;10.886;2024-02-15T11:03:08;9.35;;;3.33;;
60700;SDS011;46541;49.894;10.886;2024-02-15T11:05:40;5.55;;;2.95;;
60700;SDS011;46541;49.894;10.886;2024-02-15T11:08:09;10.95;;;7.25;;
60700;SDS011;46541;49.894;10.886;2024-02-15T11:10:38;12.02;;;4.75;;
60700;SDS011;46541;49.894;10.886;2024-02-15T11:13:09;6.25;;;4.13;;
60700;SDS011;46541;49.894;10.886;2024-02-15T11:15:43;9.75;;;3.20;;
60700;SDS011;46541;49.894;10.886;2024-02-15T11:18:41;5.72;;;3.60;;
60700;SDS011;46541;49.894;10.886;2024-02-15T11:21:16;6.68;;;2.97;;
60700;SDS011;46541;49.894;10.886;2024-02-15T11:23:44;11.77;;;8.00;;
60700;SDS011;46541;49.894;10.886;2024-02-15T11:30:15;5.25;;;2.80;;
60700;SDS011;46541;49.894;10.886;2024-02-15T11:35:27;5.35;;;2.80;;
60700;SDS011;46541;49.894;10.886;2024-02-15T11:37:57;11.63;;;7.10;;
60700;SDS011;46541;49.894;10.886;2024-02-15T11:43:08;8.25;;;2.75;;
60700;SDS011;46541;49.894;10.886;2024-02-15T11:45:37;6.13;;;3.92;;
60700;SDS011;46541;49.894;10.886;2024-02-15T11:48:07;6.78;;;3.25;;
60700;SDS011;46541;49.894;10.886;2024-02-15T11:50:39;9.35;;;4.50;;
60700;SDS011;46541;49.894;10.886;2024-02-15T11:53:07;8.25;;;3.60;;
60700;SDS011;46541;49.894;10.886;2024-02-15T11:55:38;20.52;;;3.33;;
60700;SDS011;46541;49.894;10.886;2024-02-15T11:58:07;6.55;;;3.20;;
60700;SDS011;46541;49.894;10.886;2024-02-15T12:00:38;8.07;;;3.33;;
60700;SDS011;46541;49.894;10.886;2024-02-15T12:03:24;11.20;;;3.25;;
60700;SDS011;46541;49.894;10.886;2024-02-15T12:06:28;4.38;;;2.58;;
60700;SDS011;46541;49.894;10.886;2024-02-15T12:09:17;7.63;;;4.07;;
60700;SDS011;46541;49.894;10.886;2024-02-15T12:12:16;6.63;;;3.10;;
60700;SDS011;46541;49.894;10.886;2024-02-15T12:15:19;6.00;;;2.47;;
60700;SDS011;46541;49.894;10.886;2024-02-15T12:18:14;7.93;;;3.60;;
60700;SDS011;46541;49.894;10.886;2024-02-15T12:21:03;13.43;;;6.00;;
60700;SDS011;46541;49.894;10.886;2024-02-15T12:23:31;12.55;;;2.88;;
60700;SDS011;46541;49.894;10.886;2024-02-15T12:26:00;12.23;;;6.50;;
60700;SDS011;46541;49.894;10.886;2024-02-15T12:28:30;13.95;;;6.03;;
60700;SDS011;46541;49.894;10.886;2024-02-15T12:30:57;5.78;;;2.88;;
60700;SDS011;46541;49.894;10.886;2024-02-15T12:33:24;7.60;;;3.00;;
60700;SDS011;46541;49.894;10.886;2024-02-15T12:36:05;9.35;;;4.72;;
60700;SDS011;46541;49.894;10.886;2024-02-15T12:38:34;7.97;;;2.92;;
60700;SDS011;46541;49.894;10.886;2024-02-15T12:41:04;4.60;;;3.33;;
60700;SDS011;46541;49.894;10.886;2024-02-15T12:43:46;5.35;;;2.70;;
60700;SDS011;46541;49.894;10.886;2024-02-15T12:46:19;5.63;;;2.50;;
60700;SDS011;46541;49.894;10.886;2024-02-15T12:48:46;6.57;;;2.20;;
60700;SDS011;46541;49.894;10.886;2024-02-15T12:51:14;7.82;;;2.25;;
60700;SDS011;46541;49.894;10.886;2024-02-15T12:53:41;4.28;;;1.85;;
60700;SDS011;46541;49.894;10.886;2024-02-15T12:56:08;4.13;;;2.45;;
60700;SDS011;46541;49.894;10.886;2024-02-15T12:58:35;9.35;;;4.35;;
60700;SDS011;46541;49.894;10.886;2024-02-15T13:01:02;5.55;;;3.00;;
60700;SDS011;46541;49.894;10.886;2024-02-15T13:03:30;9.32;;;2.78;;
60700;SDS011;46541;49.894;10.886;2024-02-15T13:05:57;11.02;;;3.72;;
60700;SDS011;46541;49.894;10.886;2024-02-15T13:08:24;3.83;;;1.52;;
60700;SDS011;46541;49.894;10.886;2024-02-15T13:10:51;7.18;;;2.22;;
60700;SDS011;46541;49.894;10.886;2024-02-15T13:13:18;5.18;;;2.10;;
60700;SDS011;46541;49.894;10.886;2024-02-15T13:15:46;8.43;;;2.85;;
60700;SDS011;46541;49.894;10.886;2024-02-15T13:18:18;4.53;;;2.45;;
60700;SDS011;46541;49.894;10.886;2024-02-15T13:20:45;5.28;;;1.50;;
60700;SDS011;46541;49.894;10.886;2024-02-15T13:23:16;10.38;;;3.25;;
60700;SDS011;46541;49.894;10.886;2024-02-15T13:25:49;3.47;;;1.90;;
60700;SDS011;46541;49.894;10.886;2024-02-15T13:28:16;7.00;;;2.30;;
60700;SDS011;46541;49.894;10.886;2024-02-15T13:30:43;8.70;;;3.42;;
60700;SDS011;46541;49.894;10.886;2024-02-15T13:33:12;10.40;;;3.90;;
60700;SDS011;46541;49.894;10.886;2024-02-15T13:35:39;6.90;;;3.28;;
60700;SDS011;46541;49.894;10.886;2024-02-15T13:38:07;7.43;;;2.60;;
60700;SDS011;46541;49.894;10.886;2024-02-15T13:40:41;3.78;;;1.65;;
60700;SDS011;46541;49.894;10.886;2024-02-15T13:43:08;6.80;;;1.98;;
60700;SDS011;46541;49.894;10.886;2024-02-15T13:45:42;6.40;;;2.78;;
60700;SDS011;46541;49.894;10.886;2024-02-15T13:48:10;3.78;;;1.70;;
60700;SDS011;46541;49.894;10.886;2024-02-15T13:50:41;7.75;;;2.88;;
60700;SDS011;46541;49.894;10.886;2024-02-15T13:53:11;9.63;;;5.00;;
60700;SDS011;46541;49.894;10.886;2024-02-15T13:55:40;5.88;;;2.60;;
60700;SDS011;46541;49.894;10.886;2024-02-15T13:58:07;3.75;;;2.20;;
60700;SDS011;46541;49.894;10.886;2024-02-15T14:00:35;7.30;;;3.60;;
60700;SDS011;46541;49.894;10.886;2024-02-15T14:03:03;8.13;;;1.98;;
60700;SDS011;46541;49.894;10.886;2024-02-15T14:05:33;7.38;;;2.67;;
60700;SDS011;46541;49.894;10.886;2024-02-15T14:08:00;6.82;;;3.38;;
60700;SDS011;46541;49.894;10.886;2024-02-15T14:10:37;7.90;;;3.20;;
60700;SDS011;46541;49.894;10.886;2024-02-15T14:13:04;5.28;;;2.70;;
60700;SDS011;46541;49.894;10.886;2024-02-15T14:15:36;7.13;;;3.13;;
60700;SDS011;46541;49.894;10.886;2024-02-15T14:18:07;5.18;;;2.10;;
60700;SDS011;46541;49.894;10.886;2024-02-15T14:20:44;8.63;;;3.75;;
60700;SDS011;46541;49.894;10.886;2024-02-15T14:23:15;3.03;;;2.08;;
60700;SDS011;46541;49.894;10.886;2024-02-15T14:25:42;5.53;;;2.42;;
60700;SDS011;46541;49.894;10.886;2024-02-15T14:28:11;4.13;;;2.40;;
60700;SDS011;46541;49.894;10.886;2024-02-15T14:30:39;4.05;;;1.83;;
60700;SDS011;46541;49.894;10.886;2024-02-15T14:33:24;10.18;;;2.10;;
60700;SDS011;46541;49.894;10.886;2024-02-15T14:35:59;4.45;;;2.33;;
60700;SDS011;46541;49.894;10.886;2024-02-15T14:38:27;5.25;;;1.73;;
60700;SDS011;46541;49.894;10.886;2024-02-15T14:40:55;4.35;;;2.22;;
60700;SDS011;46541;49.894;10.886;2024-02-15T14:43:24;6.72;;;2.10;;
60700;SDS011;46541;49.894;10.886;2024-02-15T14:45:53;5.10;;;2.33;;
60700;SDS011;46541;49.894;10.886;2024-02-15T14:48:20;3.17;;;1.67;;